createdAt,value
2017-12-13T00:00:33.673Z,0.80
2017-12-13T00:03:01.208Z,0.70
2017-12-13T00:05:28.666Z,0.60
2017-12-13T00:07:56.126Z,0.50
2017-12-13T00:10:23.645Z,0.50
2017-12-13T00:12:51.101Z,0.50
2017-12-13T00:15:18.602Z,0.50
2017-12-13T00:17:46.488Z,0.50
2017-12-13T00:20:14.379Z,0.50
2017-12-13T00:22:41.872Z,0.50
2017-12-13T00:25:09.365Z,0.60
2017-12-13T00:27:37.216Z,0.60
2017-12-13T00:30:08.974Z,0.60
2017-12-13T00:32:37.408Z,0.60
2017-12-13T00:35:04.891Z,0.60
2017-12-13T00:37:32.430Z,0.60
2017-12-13T00:39:59.922Z,0.60
2017-12-13T00:42:27.436Z,0.70
2017-12-13T00:44:55.044Z,0.80
2017-12-13T00:47:22.561Z,0.80
2017-12-13T00:49:50.059Z,0.80
2017-12-13T00:52:17.567Z,0.70
2017-12-13T00:54:45.149Z,0.70
2017-12-13T00:57:12.626Z,0.70
2017-12-13T00:59:40.119Z,0.80
2017-12-13T01:02:07.613Z,0.80
2017-12-13T01:04:35.094Z,0.80
2017-12-13T01:07:02.559Z,0.80
2017-12-13T01:09:30.043Z,0.80
2017-12-13T01:11:57.511Z,0.80
2017-12-13T01:14:24.990Z,0.90
2017-12-13T01:16:52.423Z,0.90
2017-12-13T01:19:19.879Z,0.90
2017-12-13T01:21:48.346Z,0.90
2017-12-13T01:24:16.189Z,0.80
2017-12-13T01:26:43.647Z,0.80
2017-12-13T01:29:11.098Z,0.80
2017-12-13T01:31:38.549Z,0.90
2017-12-13T01:34:06.017Z,0.90
2017-12-13T01:36:34.318Z,0.90
2017-12-13T01:39:02.161Z,0.90
2017-12-13T01:41:29.624Z,0.90
2017-12-13T01:43:57.085Z,0.90
2017-12-13T01:46:25.442Z,0.90
2017-12-13T01:48:52.880Z,1.00
2017-12-13T01:51:20.328Z,1.10
2017-12-13T01:53:47.972Z,1.10
2017-12-13T01:56:15.450Z,1.00
2017-12-13T01:58:43.815Z,0.90
2017-12-13T02:01:11.267Z,0.90
2017-12-13T02:03:38.703Z,1.00
2017-12-13T02:06:08.083Z,1.00
2017-12-13T02:08:35.530Z,0.90
2017-12-13T02:11:02.991Z,1.00
2017-12-13T02:13:30.456Z,0.90
2017-12-13T02:15:57.898Z,0.80
2017-12-13T02:18:26.233Z,0.80
2017-12-13T02:20:53.727Z,0.80
2017-12-13T02:23:21.188Z,0.70
2017-12-13T02:25:48.626Z,0.60
2017-12-13T02:28:16.100Z,0.60
2017-12-13T02:30:43.526Z,0.60
2017-12-13T02:33:12.943Z,0.40
2017-12-13T02:35:41.261Z,0.40
2017-12-13T02:38:08.715Z,0.60
2017-12-13T02:40:48.953Z,0.50
2017-12-13T02:43:17.299Z,0.50
2017-12-13T02:45:45.126Z,0.50
2017-12-13T02:48:12.970Z,0.40
2017-12-13T02:50:41.285Z,0.40
2017-12-13T02:53:09.174Z,0.40
2017-12-13T02:55:36.594Z,0.40
2017-12-13T02:58:05.328Z,0.40
2017-12-13T03:00:32.813Z,0.50
2017-12-13T03:03:00.253Z,0.40
2017-12-13T03:05:27.699Z,0.50
2017-12-13T03:07:55.144Z,0.60
2017-12-13T03:10:22.610Z,0.70
2017-12-13T03:12:50.035Z,0.70
2017-12-13T03:15:18.373Z,0.70
2017-12-13T03:17:45.810Z,0.60
2017-12-13T03:20:13.255Z,0.70
2017-12-13T03:22:40.721Z,0.80
2017-12-13T03:25:09.041Z,0.90
2017-12-13T03:27:36.482Z,0.90
2017-12-13T03:30:03.928Z,0.90
2017-12-13T03:32:31.383Z,0.80
2017-12-13T03:34:58.853Z,0.80
2017-12-13T03:37:26.298Z,0.80
2017-12-13T03:39:53.730Z,0.90
2017-12-13T03:42:21.187Z,1.00
2017-12-13T03:44:48.640Z,1.10
2017-12-13T03:47:17.574Z,1.30
2017-12-13T03:49:45.043Z,1.30
2017-12-13T03:52:12.484Z,1.40
2017-12-13T03:54:41.881Z,1.30
2017-12-13T03:57:09.339Z,1.40
2017-12-13T03:59:36.790Z,1.50
2017-12-13T04:02:04.234Z,1.40
2017-12-13T04:04:32.711Z,1.40
2017-12-13T04:07:00.156Z,1.40
2017-12-13T04:09:27.613Z,1.40
2017-12-13T04:11:55.100Z,1.50
2017-12-13T04:14:22.538Z,1.50
2017-12-13T04:16:50.906Z,1.60
2017-12-13T04:19:18.371Z,1.60
2017-12-13T04:21:45.855Z,1.60
2017-12-13T04:24:13.307Z,1.60
2017-12-13T04:26:40.798Z,1.70
2017-12-13T04:29:08.639Z,1.90
2017-12-13T04:31:36.936Z,1.90
2017-12-13T04:34:04.770Z,1.90
2017-12-13T04:36:32.228Z,2.00
2017-12-13T04:38:59.719Z,1.90
2017-12-13T04:41:27.563Z,1.90
2017-12-13T04:43:55.044Z,1.90
2017-12-13T04:46:22.475Z,1.90
2017-12-13T04:48:50.854Z,1.90
2017-12-13T04:51:18.290Z,1.90
2017-12-13T04:53:45.751Z,2.00
2017-12-13T04:56:13.215Z,1.90
2017-12-13T04:58:41.531Z,2.10
2017-12-13T05:01:09.366Z,2.10
2017-12-13T05:03:36.834Z,2.10
2017-12-13T05:06:04.286Z,2.20
2017-12-13T05:08:32.494Z,2.20
2017-12-13T05:11:01.338Z,2.10
2017-12-13T05:13:29.652Z,2.10
2017-12-13T05:15:58.258Z,2.20
2017-12-13T05:18:25.749Z,2.10
2017-12-13T05:20:53.720Z,2.20
2017-12-13T05:23:21.182Z,2.10
2017-12-13T05:25:48.636Z,2.10
2017-12-13T05:28:18.039Z,2.10
2017-12-13T05:30:45.478Z,2.10
2017-12-13T05:33:12.942Z,2.20
2017-12-13T05:35:40.384Z,2.20
2017-12-13T05:38:09.072Z,2.20
2017-12-13T05:40:37.342Z,2.20
2017-12-13T05:43:05.702Z,2.30
2017-12-13T05:45:33.169Z,2.30
2017-12-13T05:48:00.635Z,2.30
2017-12-13T05:50:28.070Z,2.30
2017-12-13T05:52:56.499Z,2.20
2017-12-13T05:55:23.947Z,2.20
2017-12-13T05:57:51.385Z,2.10
2017-12-13T06:00:19.366Z,2.10
2017-12-13T06:02:47.681Z,2.10
2017-12-13T06:05:15.128Z,2.00
2017-12-13T06:07:42.585Z,2.10
2017-12-13T06:10:10.030Z,2.00
2017-12-13T06:12:37.584Z,2.00
2017-12-13T06:15:05.982Z,2.00
2017-12-13T06:17:33.467Z,2.00
2017-12-13T06:20:02.194Z,2.00
2017-12-13T06:22:29.655Z,2.00
2017-12-13T06:24:57.099Z,2.00
2017-12-13T06:27:24.566Z,2.00
2017-12-13T06:29:52.018Z,1.90
2017-12-13T06:32:19.455Z,2.00
2017-12-13T06:34:46.911Z,2.10
2017-12-13T06:37:17.350Z,2.10
2017-12-13T06:39:44.778Z,2.10
2017-12-13T06:42:12.626Z,2.00
2017-12-13T06:44:40.075Z,2.10
2017-12-13T06:47:07.506Z,2.00
2017-12-13T06:49:34.949Z,2.00
2017-12-13T06:52:02.381Z,1.90
2017-12-13T06:54:30.704Z,1.80
2017-12-13T06:56:58.142Z,1.80
2017-12-13T06:59:25.570Z,1.80
2017-12-13T07:01:53.570Z,1.90
2017-12-13T07:04:21.931Z,1.90
2017-12-13T07:06:49.385Z,1.90
2017-12-13T07:09:16.814Z,1.90
2017-12-13T07:11:44.251Z,1.90
2017-12-13T07:14:13.664Z,1.80
2017-12-13T07:16:41.979Z,1.80
2017-12-13T07:19:09.408Z,1.90
2017-12-13T07:21:36.863Z,2.00
2017-12-13T07:24:04.588Z,2.00
2017-12-13T07:26:32.972Z,1.90
2017-12-13T07:29:00.455Z,1.80
2017-12-13T07:31:27.992Z,1.80
2017-12-13T07:33:55.462Z,1.90
2017-12-13T07:36:22.918Z,1.90
2017-12-13T07:38:50.375Z,2.00
2017-12-13T07:41:17.823Z,2.10
2017-12-13T07:43:45.273Z,2.10
2017-12-13T07:46:12.738Z,2.20
2017-12-13T07:48:40.186Z,2.20
2017-12-13T07:51:07.647Z,2.10
2017-12-13T07:53:35.094Z,2.00
2017-12-13T07:56:02.561Z,2.10
2017-12-13T08:01:16.771Z,2.20
2017-12-13T08:03:44.618Z,2.30
2017-12-13T08:06:12.051Z,2.30
2017-12-13T08:08:39.502Z,2.30
2017-12-13T08:11:06.934Z,2.30
2017-12-13T08:13:34.387Z,2.30
2017-12-13T08:16:01.826Z,2.30
2017-12-13T08:18:29.658Z,2.30
2017-12-13T08:20:57.117Z,2.30
2017-12-13T08:23:24.563Z,2.30
2017-12-13T08:25:52.014Z,2.30
2017-12-13T08:28:19.464Z,2.40
2017-12-13T08:30:46.945Z,2.50
2017-12-13T08:33:14.384Z,2.50
2017-12-13T08:35:41.841Z,2.60
2017-12-13T08:38:10.179Z,2.70
2017-12-13T08:40:37.610Z,2.80
2017-12-13T08:43:05.066Z,2.80
2017-12-13T08:45:32.508Z,2.80
2017-12-13T08:47:59.955Z,2.80
2017-12-13T08:50:27.385Z,2.90
2017-12-13T08:52:54.840Z,2.90
2017-12-13T08:55:24.508Z,2.90
2017-12-13T08:57:52.860Z,3.00
2017-12-13T09:00:20.422Z,3.00
2017-12-13T09:02:47.867Z,3.10
2017-12-13T09:05:15.316Z,3.00
2017-12-13T09:07:42.778Z,3.00
2017-12-13T09:10:11.187Z,2.90
2017-12-13T09:12:38.634Z,2.90
2017-12-13T09:15:06.097Z,2.90
2017-12-13T09:17:33.526Z,3.00
2017-12-13T09:20:00.984Z,3.00
2017-12-13T09:22:28.438Z,3.10
2017-12-13T09:24:56.492Z,3.20
2017-12-13T09:27:23.931Z,3.20
2017-12-13T09:29:51.392Z,3.30
2017-12-13T09:32:18.848Z,3.40
2017-12-13T09:34:46.310Z,3.50
2017-12-13T09:37:13.746Z,3.60
2017-12-13T09:39:42.466Z,3.50
2017-12-13T09:42:09.921Z,3.50
2017-12-13T09:44:37.356Z,3.50
2017-12-13T09:47:04.814Z,3.50
2017-12-13T09:49:32.249Z,3.70
2017-12-13T09:51:59.704Z,3.80
2017-12-13T09:54:27.547Z,3.60
2017-12-13T09:56:54.995Z,3.60
2017-12-13T09:59:22.431Z,3.90
2017-12-13T10:01:50.765Z,3.90
2017-12-13T10:04:19.493Z,4.10
2017-12-13T10:06:46.943Z,4.10
2017-12-13T10:09:14.386Z,4.20
2017-12-13T10:11:41.839Z,4.30
2017-12-13T10:14:09.828Z,4.20
2017-12-13T10:16:37.280Z,4.20
2017-12-13T10:19:04.718Z,4.20
2017-12-13T10:21:32.158Z,4.20
2017-12-13T10:24:00.006Z,4.20
2017-12-13T10:26:27.476Z,4.20
2017-12-13T10:28:54.904Z,4.20
2017-12-13T10:31:22.347Z,4.10
2017-12-13T10:33:49.803Z,4.30
2017-12-13T10:36:17.252Z,4.30
2017-12-13T10:38:44.736Z,4.30
2017-12-13T10:41:12.204Z,4.40
2017-12-13T10:43:39.661Z,4.30
2017-12-13T10:46:07.115Z,4.30
2017-12-13T10:48:34.574Z,4.30
2017-12-13T10:51:02.044Z,4.40
2017-12-13T10:53:30.405Z,4.50
2017-12-13T10:55:57.827Z,4.50
2017-12-13T10:58:25.283Z,4.40
2017-12-13T11:00:53.855Z,4.50
2017-12-13T11:03:21.390Z,4.40
2017-12-13T11:05:48.828Z,4.30
2017-12-13T11:08:16.264Z,4.30
2017-12-13T11:10:43.722Z,4.50
2017-12-13T11:13:11.172Z,4.60
2017-12-13T11:15:39.002Z,4.70
2017-12-13T11:18:07.832Z,4.70
2017-12-13T11:20:35.719Z,4.80
2017-12-13T11:23:03.175Z,4.80
2017-12-13T11:25:30.609Z,4.80
2017-12-13T11:27:58.999Z,4.70
2017-12-13T11:30:26.443Z,4.70
2017-12-13T11:32:53.873Z,4.60
2017-12-13T11:35:21.319Z,4.60
2017-12-13T11:37:49.574Z,4.60
2017-12-13T11:40:17.428Z,4.70
2017-12-13T11:42:44.876Z,4.70
2017-12-13T11:45:14.709Z,4.70
2017-12-13T11:47:42.600Z,4.60
2017-12-13T11:50:10.052Z,4.60
2017-12-13T11:52:37.510Z,4.50
2017-12-13T11:55:05.347Z,4.60
2017-12-13T11:57:33.706Z,4.70
2017-12-13T12:00:01.139Z,4.70
2017-12-13T12:02:28.590Z,4.70
2017-12-13T12:04:56.043Z,4.50
2017-12-13T12:07:23.490Z,4.40
2017-12-13T12:09:50.941Z,4.40
2017-12-13T12:12:18.401Z,4.30
2017-12-13T12:14:45.854Z,4.20
2017-12-13T12:17:13.295Z,4.10
2017-12-13T12:19:41.158Z,3.90
2017-12-13T12:22:09.007Z,3.80
2017-12-13T12:24:36.457Z,3.80
2017-12-13T12:27:03.900Z,3.80
2017-12-13T12:29:31.342Z,3.80
2017-12-13T12:31:59.718Z,3.70
2017-12-13T12:34:27.150Z,3.70
2017-12-13T12:36:55.381Z,3.60
2017-12-13T12:39:24.783Z,3.50
2017-12-13T12:41:52.243Z,3.50
2017-12-13T12:44:19.696Z,3.40
2017-12-13T12:46:47.142Z,3.40
2017-12-13T12:49:14.590Z,3.40
2017-12-13T12:51:42.048Z,3.40
2017-12-13T12:54:09.510Z,3.40
2017-12-13T12:56:36.964Z,3.40
2017-12-13T12:59:04.427Z,3.30
2017-12-13T13:01:31.895Z,3.30
2017-12-13T13:04:00.831Z,3.20
2017-12-13T13:06:29.175Z,3.20
2017-12-13T13:08:56.651Z,3.20
2017-12-13T13:11:24.512Z,3.20
2017-12-13T13:13:53.030Z,3.20
2017-12-13T13:16:20.488Z,3.20
2017-12-13T13:18:47.948Z,3.10
2017-12-13T13:21:15.404Z,3.10
2017-12-13T13:23:43.768Z,3.20
2017-12-13T13:26:11.218Z,3.10
2017-12-13T13:28:38.647Z,3.00
2017-12-13T13:31:06.105Z,3.00
2017-12-13T13:33:33.763Z,3.00
2017-12-13T13:36:01.206Z,3.00
2017-12-13T13:38:28.667Z,3.00
2017-12-13T13:40:56.119Z,2.80
2017-12-13T13:43:23.576Z,2.70
2017-12-13T13:45:51.021Z,2.60
2017-12-13T13:48:18.474Z,2.50
2017-12-13T13:50:45.931Z,2.50
2017-12-13T13:53:13.359Z,2.50
2017-12-13T13:55:40.827Z,2.50
2017-12-13T13:58:08.281Z,2.50
2017-12-13T14:00:37.674Z,2.50
2017-12-13T14:03:05.111Z,2.50
2017-12-13T14:05:32.959Z,2.50
2017-12-13T14:08:00.396Z,2.50
2017-12-13T14:10:27.862Z,2.60
2017-12-13T14:13:00.942Z,2.60
2017-12-13T14:15:28.393Z,2.60
2017-12-13T14:17:55.847Z,2.60
2017-12-13T14:20:23.298Z,2.60
2017-12-13T14:22:50.743Z,2.60
2017-12-13T14:25:18.218Z,2.60
2017-12-13T14:27:46.459Z,2.50
2017-12-13T14:30:16.303Z,2.50
2017-12-13T14:32:52.678Z,2.50
2017-12-13T14:35:20.128Z,2.50
2017-12-13T14:37:47.585Z,2.40
2017-12-13T14:40:15.058Z,2.30
2017-12-13T14:42:42.526Z,2.40
2017-12-13T14:45:09.945Z,2.30
2017-12-13T14:47:37.390Z,2.30
2017-12-13T14:50:04.859Z,2.20
2017-12-13T14:52:33.262Z,2.20
2017-12-13T14:55:00.747Z,2.10
2017-12-13T14:57:28.184Z,2.10
2017-12-13T14:59:55.632Z,2.20
2017-12-13T15:02:23.893Z,2.10
2017-12-13T15:04:51.379Z,2.10
2017-12-13T15:07:19.876Z,2.10
2017-12-13T15:09:47.302Z,2.10
2017-12-13T15:12:14.762Z,2.10
2017-12-13T15:14:44.174Z,2.10
2017-12-13T15:17:11.627Z,2.10
2017-12-13T15:19:39.068Z,2.10
2017-12-13T15:22:06.509Z,2.00
2017-12-13T15:24:34.830Z,2.00
2017-12-13T15:27:02.396Z,2.00
2017-12-13T15:29:31.135Z,2.00
2017-12-13T15:31:58.585Z,2.00
2017-12-13T15:34:26.050Z,1.90
2017-12-13T15:36:55.443Z,2.00
2017-12-13T15:39:22.929Z,2.00
2017-12-13T15:41:50.371Z,2.00
2017-12-13T15:44:18.532Z,1.90
2017-12-13T15:46:45.964Z,1.90
2017-12-13T15:49:13.406Z,1.90
2017-12-13T15:51:41.234Z,1.90
2017-12-13T15:54:08.680Z,1.90
2017-12-13T15:56:36.126Z,1.90
2017-12-13T15:59:03.581Z,1.90
2017-12-13T16:01:31.035Z,1.90
2017-12-13T16:03:58.497Z,1.80
2017-12-13T16:06:25.931Z,1.90
2017-12-13T16:08:55.351Z,1.90
2017-12-13T16:11:23.683Z,2.00
2017-12-13T16:13:55.337Z,1.90
2017-12-13T16:16:23.673Z,1.90
2017-12-13T16:18:51.129Z,2.00
2017-12-13T16:21:18.584Z,1.90
2017-12-13T16:23:46.034Z,2.00
2017-12-13T16:26:14.423Z,1.90
2017-12-13T16:28:41.908Z,1.90
2017-12-13T16:31:09.347Z,1.90
2017-12-13T16:33:36.815Z,2.00
2017-12-13T16:36:04.259Z,1.90
2017-12-13T16:38:31.700Z,2.00
2017-12-13T16:40:59.154Z,2.00
2017-12-13T16:43:26.612Z,2.10
2017-12-13T16:45:54.074Z,2.10
2017-12-13T16:48:23.455Z,2.10
2017-12-13T16:50:51.776Z,2.10
2017-12-13T16:53:20.146Z,2.10
2017-12-13T16:55:47.582Z,2.20
2017-12-13T16:58:15.048Z,2.20
2017-12-13T17:00:42.499Z,2.30
2017-12-13T17:03:10.159Z,2.30
2017-12-13T17:05:37.623Z,2.20
2017-12-13T17:08:05.074Z,2.20
2017-12-13T17:10:32.605Z,2.20
2017-12-13T17:13:00.088Z,2.20
2017-12-13T17:15:27.550Z,2.20
2017-12-13T17:17:55.013Z,2.20
2017-12-13T17:20:24.395Z,2.20
2017-12-13T17:22:51.864Z,2.20
2017-12-13T17:25:19.324Z,2.30
2017-12-13T17:27:46.782Z,2.20
2017-12-13T17:30:14.216Z,2.30
2017-12-13T17:32:41.669Z,2.30
2017-12-13T17:35:09.106Z,2.30
2017-12-13T17:37:36.551Z,2.40
2017-12-13T17:40:03.980Z,2.30
2017-12-13T17:42:31.501Z,2.30
2017-12-13T17:44:58.980Z,2.30
2017-12-13T17:47:26.437Z,2.30
2017-12-13T17:49:53.892Z,2.30
2017-12-13T17:52:21.346Z,2.30
2017-12-13T17:54:48.787Z,2.30
2017-12-13T17:57:16.310Z,2.40
2017-12-13T17:59:43.745Z,2.40
2017-12-13T18:02:12.075Z,2.40
2017-12-13T18:04:39.706Z,2.40
2017-12-13T18:07:07.918Z,2.50
2017-12-13T18:09:37.317Z,2.50
2017-12-13T18:12:04.753Z,2.60
2017-12-13T18:14:32.590Z,2.60
2017-12-13T18:17:00.043Z,2.60
2017-12-13T18:19:27.499Z,2.50
2017-12-13T18:21:54.938Z,2.60
2017-12-13T18:24:22.384Z,2.60
2017-12-13T18:26:50.701Z,2.60
2017-12-13T18:29:18.146Z,2.80
2017-12-13T18:31:45.586Z,2.80
2017-12-13T18:34:13.918Z,2.70
2017-12-13T18:36:41.365Z,2.70
2017-12-13T18:41:37.211Z,2.70
2017-12-13T18:44:06.598Z,2.70
2017-12-13T18:46:34.037Z,2.80
2017-12-13T18:49:02.805Z,2.80
2017-12-13T18:51:30.223Z,2.80
2017-12-13T18:53:58.666Z,2.80
2017-12-13T18:56:26.597Z,2.90
2017-12-13T18:58:54.034Z,2.90
2017-12-13T19:01:21.520Z,3.00
2017-12-13T19:03:48.965Z,3.00
2017-12-13T19:06:16.410Z,2.90
2017-12-13T19:08:43.865Z,2.90
2017-12-13T19:11:11.308Z,3.00
2017-12-13T19:13:39.703Z,3.10
2017-12-13T19:16:07.158Z,3.00
2017-12-13T19:18:34.594Z,3.00
2017-12-13T19:21:04.004Z,3.00
2017-12-13T19:23:31.456Z,3.10
2017-12-13T19:25:58.916Z,3.10
2017-12-13T19:28:27.229Z,3.20
2017-12-13T19:30:54.794Z,3.20
2017-12-13T19:33:22.259Z,3.20
2017-12-13T19:35:50.589Z,3.30
2017-12-13T19:38:18.966Z,3.30
2017-12-13T19:40:46.397Z,3.30
2017-12-13T19:43:13.915Z,3.40
2017-12-13T19:45:42.290Z,3.40
2017-12-13T19:48:09.744Z,3.50
2017-12-13T19:50:37.200Z,3.50
2017-12-13T19:53:04.646Z,3.50
2017-12-13T19:55:32.143Z,3.50
2017-12-13T19:57:59.595Z,3.60
2017-12-13T20:00:27.932Z,3.60
2017-12-13T20:02:55.379Z,3.60
2017-12-13T20:05:22.851Z,3.70
2017-12-13T20:07:51.303Z,3.70
2017-12-13T20:10:19.243Z,3.70
2017-12-13T20:12:47.095Z,3.80
2017-12-13T20:15:16.144Z,3.80
2017-12-13T20:17:43.614Z,3.80
2017-12-13T20:20:11.064Z,3.80
2017-12-13T20:22:38.507Z,3.90
2017-12-13T20:25:05.988Z,3.90
2017-12-13T20:27:33.436Z,3.90
2017-12-13T20:30:00.905Z,4.00
2017-12-13T20:32:28.385Z,4.00
2017-12-13T20:34:55.846Z,4.00
2017-12-13T20:37:24.237Z,4.00
2017-12-13T20:39:52.079Z,4.10
2017-12-13T20:42:19.542Z,4.10
2017-12-13T20:44:47.915Z,4.10
2017-12-13T20:47:15.351Z,4.10
2017-12-13T20:49:42.804Z,4.10
2017-12-13T20:52:10.247Z,4.10
2017-12-13T20:54:38.593Z,4.20
2017-12-13T20:57:06.448Z,4.20
2017-12-13T20:59:37.468Z,4.20
2017-12-13T21:02:04.927Z,4.20
2017-12-13T21:04:32.349Z,4.30
2017-12-13T21:06:59.796Z,4.30
2017-12-13T21:09:27.256Z,4.30
2017-12-13T21:11:55.632Z,4.40
2017-12-13T21:14:23.857Z,4.40
2017-12-13T21:16:51.307Z,4.40
2017-12-13T21:19:18.762Z,4.40
2017-12-13T21:21:46.201Z,4.40
2017-12-13T21:24:13.677Z,4.40
2017-12-13T21:26:41.118Z,4.50
2017-12-13T21:29:08.555Z,4.50
2017-12-13T21:31:36.050Z,4.40
2017-12-13T21:34:03.519Z,4.50
2017-12-13T21:36:31.373Z,4.40
2017-12-13T21:38:58.797Z,4.40
2017-12-13T21:41:26.250Z,4.40
2017-12-13T21:43:53.699Z,4.40
2017-12-13T21:46:21.135Z,4.40
2017-12-13T21:48:48.574Z,4.50
2017-12-13T21:51:16.015Z,4.50
2017-12-13T21:53:43.458Z,4.50
2017-12-13T21:56:10.895Z,4.40
2017-12-13T21:58:38.339Z,4.40
2017-12-13T22:01:05.774Z,4.40
2017-12-13T22:03:33.206Z,4.40
2017-12-13T22:06:01.037Z,4.50
2017-12-13T22:08:28.474Z,4.50
2017-12-13T22:10:55.934Z,4.50
2017-12-13T22:13:23.376Z,4.60
2017-12-13T22:15:50.834Z,4.60
2017-12-13T22:18:18.270Z,4.60
2017-12-13T22:20:47.372Z,4.60
2017-12-13T22:23:14.814Z,4.60
2017-12-13T22:25:43.147Z,4.60
2017-12-13T22:28:10.599Z,4.60
2017-12-13T22:30:38.032Z,4.60
2017-12-13T22:33:05.462Z,4.60
2017-12-13T22:35:32.919Z,4.50
2017-12-13T22:38:00.726Z,4.60
2017-12-13T22:40:28.155Z,4.60
2017-12-13T22:42:55.597Z,4.60
2017-12-13T22:45:23.914Z,4.60
2017-12-13T22:47:51.361Z,4.60
2017-12-13T22:50:18.804Z,4.60
2017-12-13T22:52:47.110Z,4.60
2017-12-13T22:55:14.563Z,4.60
2017-12-13T22:57:42.915Z,4.60
2017-12-13T23:00:10.350Z,4.60
2017-12-13T23:02:38.192Z,4.60
2017-12-13T23:05:05.611Z,4.60
2017-12-13T23:07:33.920Z,4.60
2017-12-13T23:10:03.273Z,4.60
2017-12-13T23:12:30.725Z,4.50
2017-12-13T23:14:58.516Z,4.60
2017-12-13T23:17:25.944Z,4.60
2017-12-13T23:19:53.374Z,4.50
2017-12-13T23:22:21.180Z,4.60
2017-12-13T23:24:48.604Z,4.60
2017-12-13T23:27:16.089Z,4.60
2017-12-13T23:29:45.403Z,4.60
2017-12-13T23:32:12.816Z,4.50
2017-12-13T23:34:40.642Z,4.50
2017-12-13T23:37:08.069Z,4.60
2017-12-13T23:39:35.485Z,4.60
2017-12-13T23:42:03.292Z,4.50
2017-12-13T23:44:31.599Z,4.50
2017-12-13T23:46:59.042Z,4.50
2017-12-13T23:49:26.466Z,4.50
2017-12-13T23:51:53.909Z,4.50
2017-12-13T23:54:22.732Z,4.50
2017-12-13T23:56:52.121Z,4.50
2017-12-13T23:59:19.545Z,4.50
